INDIA METEOROLOGICAL DEPARTMENT, R.M.C. NEW DELHI
Dated:21 - 9 - 2017
METARS OF ALTERNATE AIRPORTS
Delhi      
VIDP 210300Z 13008KT 2500 HZ FEW100 30/25 Q1005 NOSIG =
Amritsar   
VIAR 210230Z VRB00KT 3500 BR SCT035 27/27 Q1005 NOSIG=
Lucknow    
VILK 210230Z 07006KT 3000 BR SCT010 BKN018 FEW030CB OVC090 28/27 Q1003 NOSIG=
Jaipur     
VIJP 210300Z VRB02KT 3000 HZ FEW100 29/22 Q1006 NOSIG=
Ahmedabad  
VAAH 210300Z 25005KT 3500 HZ SCT020 BKN080 28/25 Q1005 NOSIG=
Udaipur    
VAUD 210230Z 00000KT 5000 BR SCT100 24/20 Q1006 NOSIG=
Mumbai     
VABB 210300Z 00000KT 1500 BR FEW012 SCT018 FEW030CB OVC090 25/24 Q1006 NOSIG=